createdAt,value
2023-01-01T00:02:04.137Z,28.08
2023-01-01T00:04:31.871Z,33.53
2023-01-01T00:06:58.462Z,35.58
2023-01-01T00:09:45.298Z,34.13
2023-01-01T00:12:11.945Z,38.65
2023-01-01T00:14:39.358Z,35.60
2023-01-01T00:17:05.957Z,40.08
2023-01-01T00:19:32.732Z,35.45
2023-01-01T00:22:02.114Z,44.20
2023-01-01T00:24:36.632Z,45.90
2023-01-01T00:27:03.287Z,47.92
2023-01-01T00:29:29.946Z,45.95
2023-01-01T00:31:56.549Z,48.30
2023-01-01T00:34:23.199Z,46.85
2023-01-01T00:36:49.838Z,48.00
2023-01-01T00:39:16.566Z,44.97
2023-01-01T00:41:43.165Z,48.33
2023-01-01T00:44:10.802Z,47.08
2023-01-01T00:46:37.473Z,53.22
2023-01-01T00:49:04.141Z,50.58
2023-01-01T00:51:36.690Z,50.17
2023-01-01T00:54:03.949Z,57.05
2023-01-01T00:56:30.597Z,57.38
2023-01-01T00:59:01.276Z,59.70
2023-01-01T01:01:28.928Z,55.47
2023-01-01T01:03:55.649Z,58.22
2023-01-01T01:06:22.422Z,54.22
2023-01-01T01:08:49.059Z,55.85
2023-01-01T01:11:21.302Z,50.67
2023-01-01T01:13:50.231Z,48.63
2023-01-01T01:16:41.693Z,50.30
2023-01-01T01:19:13.818Z,51.55
2023-01-01T01:21:40.561Z,48.58
2023-01-01T01:24:07.593Z,49.80
2023-01-01T01:26:36.542Z,52.45
2023-01-01T01:29:03.625Z,50.05
2023-01-01T01:31:33.027Z,48.42
2023-01-01T01:33:59.645Z,52.95
2023-01-01T01:36:26.937Z,47.53
2023-01-01T01:38:53.721Z,43.30
2023-01-01T01:41:30.024Z,51.00
2023-01-01T01:44:24.653Z,49.50
2023-01-01T01:46:51.407Z,45.20
2023-01-01T01:49:26.216Z,37.95
2023-01-01T01:51:53.848Z,43.80
2023-01-01T01:54:24.265Z,34.45
2023-01-01T01:57:03.656Z,32.45
2023-01-01T01:59:33.640Z,31.52
2023-01-01T02:02:01.284Z,31.23
2023-01-01T02:04:28.629Z,31.23
2023-01-01T02:06:55.865Z,34.47
2023-01-01T02:09:23.067Z,34.83
2023-01-01T02:11:49.711Z,34.58
2023-01-01T02:14:16.393Z,29.95
2023-01-01T02:16:56.838Z,27.88
2023-01-01T02:19:35.550Z,40.80
2023-01-01T02:22:26.311Z,32.17
2023-01-01T02:25:11.762Z,32.15
2023-01-01T02:27:59.207Z,31.55
2023-01-01T02:30:29.015Z,31.35
2023-01-01T02:33:09.130Z,31.33
2023-01-01T02:35:42.451Z,30.02
2023-01-01T02:41:02.183Z,27.52
2023-01-01T02:43:29.275Z,30.63
2023-01-01T02:45:56.903Z,32.05
2023-01-01T02:48:41.636Z,27.35
2023-01-01T02:51:38.253Z,29.30
2023-01-01T02:54:46.389Z,30.52
2023-01-01T02:57:36.385Z,26.23
2023-01-01T03:00:24.393Z,31.52
2023-01-01T03:03:19.240Z,28.05
2023-01-01T03:06:23.332Z,27.02
2023-01-01T03:09:11.051Z,24.15
2023-01-01T03:11:45.753Z,25.23
2023-01-01T03:14:44.047Z,23.10
2023-01-01T03:17:29.465Z,25.80
2023-01-01T03:19:58.984Z,27.02
2023-01-01T03:22:31.646Z,23.90
2023-01-01T03:25:19.572Z,25.87
2023-01-01T03:28:10.349Z,27.08
2023-01-01T03:30:39.643Z,24.63
2023-01-01T03:33:29.044Z,27.42
2023-01-01T03:36:21.923Z,22.90
2023-01-01T03:38:59.136Z,22.05
2023-01-01T03:41:39.636Z,23.00
2023-01-01T03:44:18.814Z,22.48
2023-01-01T03:46:46.309Z,21.75
2023-01-01T03:49:13.811Z,20.65
2023-01-01T03:52:00.447Z,22.88
2023-01-01T03:54:58.571Z,22.27
2023-01-01T03:57:40.213Z,21.98
2023-01-01T04:00:16.352Z,22.70
2023-01-01T04:02:50.363Z,19.40
2023-01-01T04:05:18.801Z,22.10
2023-01-01T04:10:17.681Z,23.00
2023-01-01T04:12:48.891Z,25.27
2023-01-01T04:15:20.881Z,20.25
2023-01-01T04:17:47.898Z,18.38
2023-01-01T04:20:14.872Z,22.10
2023-01-01T04:22:41.734Z,22.30
2023-01-01T04:25:09.963Z,21.83
2023-01-01T04:27:37.631Z,20.67
2023-01-01T04:30:06.216Z,20.73
2023-01-01T04:32:32.857Z,20.65
2023-01-01T04:34:59.509Z,21.75
2023-01-01T04:37:27.173Z,21.95
2023-01-01T04:39:54.079Z,21.15
2023-01-01T04:42:20.693Z,18.27
2023-01-01T04:44:47.307Z,19.98
2023-01-01T04:47:13.961Z,21.95
2023-01-01T04:49:40.589Z,20.20
2023-01-01T04:52:07.243Z,21.42
2023-01-01T04:54:33.879Z,20.70
2023-01-01T04:57:00.913Z,21.10
2023-01-01T04:59:29.720Z,19.60
2023-01-01T05:01:56.596Z,19.88
2023-01-01T05:04:23.321Z,18.60
2023-01-01T05:06:50.065Z,16.65
2023-01-01T05:09:16.702Z,19.65
2023-01-01T05:11:43.309Z,18.58
2023-01-01T05:14:10.077Z,17.20
2023-01-01T05:16:38.841Z,17.52
2023-01-01T05:19:06.427Z,18.70
2023-01-01T05:21:36.250Z,19.52
2023-01-01T05:24:05.458Z,17.10
2023-01-01T05:26:34.872Z,16.73
2023-01-01T05:29:02.027Z,18.83
2023-01-01T05:31:33.331Z,18.80
2023-01-01T05:36:32.319Z,14.55
2023-01-01T05:38:59.732Z,15.90
2023-01-01T05:41:27.050Z,17.80
2023-01-01T05:43:54.175Z,15.38
2023-01-01T05:46:23.714Z,18.42
2023-01-01T05:48:51.438Z,17.33
2023-01-01T05:51:21.005Z,17.00
2023-01-01T05:53:48.090Z,17.27
2023-01-01T05:56:16.069Z,18.40
2023-01-01T05:58:43.656Z,15.27
2023-01-01T06:01:13.098Z,15.40
2023-01-01T06:03:40.651Z,15.05
2023-01-01T06:06:15.816Z,15.27
2023-01-01T06:08:42.603Z,15.30
2023-01-01T06:11:12.657Z,18.35
2023-01-01T06:13:39.279Z,15.45
2023-01-01T06:16:06.401Z,17.20
2023-01-01T06:18:35.287Z,17.15
2023-01-01T06:21:07.137Z,16.05
2023-01-01T06:23:33.849Z,15.23
2023-01-01T06:26:07.891Z,14.32
2023-01-01T06:28:34.524Z,16.08
2023-01-01T06:31:05.422Z,16.45
2023-01-01T06:33:32.835Z,13.93
2023-01-01T06:36:01.986Z,18.85
2023-01-01T06:38:37.857Z,19.85
2023-01-01T06:41:06.988Z,17.60
2023-01-01T06:43:35.760Z,15.73
2023-01-01T06:46:06.953Z,15.27
2023-01-01T06:48:36.327Z,16.30
2023-01-01T06:51:20.912Z,15.30
2023-01-01T06:53:49.238Z,18.23
2023-01-01T06:56:16.293Z,15.05
2023-01-01T06:58:43.353Z,16.27
2023-01-01T07:01:31.896Z,16.33
2023-01-01T07:04:00.583Z,18.48
2023-01-01T07:06:28.732Z,21.98
2023-01-01T07:08:55.742Z,21.70
2023-01-01T07:11:23.007Z,23.00
2023-01-01T07:13:49.708Z,24.95
2023-01-01T07:16:16.503Z,23.50
2023-01-01T07:18:43.135Z,25.38
2023-01-01T07:21:38.049Z,28.33
2023-01-01T07:24:06.040Z,23.38
2023-01-01T07:26:33.917Z,23.17
2023-01-01T07:29:06.871Z,19.38
2023-01-01T07:31:38.539Z,19.25
2023-01-01T07:34:06.478Z,17.23
2023-01-01T07:36:33.523Z,21.65
2023-01-01T07:39:00.262Z,19.83
2023-01-01T07:41:26.872Z,18.27
2023-01-01T07:43:53.508Z,19.13
2023-01-01T07:46:20.262Z,17.73
2023-01-01T07:48:47.180Z,21.60
2023-01-01T07:51:13.917Z,20.42
2023-01-01T07:53:40.539Z,18.67
2023-01-01T07:56:08.369Z,20.63
2023-01-01T07:58:35.029Z,20.58
2023-01-01T08:01:01.716Z,20.52
2023-01-01T08:03:28.411Z,19.98
2023-01-01T08:05:55.108Z,19.00
2023-01-01T08:08:21.764Z,19.20
2023-01-01T08:10:48.386Z,15.57
2023-01-01T08:13:14.981Z,16.98
2023-01-01T08:15:41.598Z,16.05
2023-01-01T08:18:09.636Z,15.15
2023-01-01T08:20:36.284Z,15.18
2023-01-01T08:23:07.123Z,12.88
2023-01-01T08:25:35.042Z,15.40
2023-01-01T08:28:01.696Z,12.93
2023-01-01T08:30:28.436Z,10.35
2023-01-01T08:32:55.265Z,12.15
2023-01-01T08:35:21.844Z,14.80
2023-01-01T08:37:48.499Z,12.55
2023-01-01T08:40:15.152Z,10.45
2023-01-01T08:42:41.799Z,10.23
2023-01-01T08:45:09.128Z,13.73
2023-01-01T08:47:35.962Z,10.07
2023-01-01T08:50:02.607Z,11.70
2023-01-01T08:52:29.332Z,9.98
2023-01-01T08:54:56.021Z,10.02
2023-01-01T08:57:22.873Z,11.70
2023-01-01T08:59:49.527Z,11.65
2023-01-01T09:02:16.313Z,13.75
2023-01-01T09:04:43.048Z,10.57
2023-01-01T09:07:09.711Z,13.48
2023-01-01T09:09:36.340Z,13.43
2023-01-01T09:12:09.152Z,14.52
2023-01-01T09:14:35.888Z,14.48
2023-01-01T09:17:03.258Z,13.85
2023-01-01T09:19:29.888Z,13.65
2023-01-01T09:21:56.564Z,15.27
2023-01-01T09:24:23.292Z,11.27
2023-01-01T09:26:50.080Z,12.48
2023-01-01T09:29:21.647Z,12.05
2023-01-01T09:31:49.320Z,12.07
2023-01-01T09:34:17.822Z,11.32
2023-01-01T09:36:45.690Z,11.55
2023-01-01T09:39:15.308Z,9.50
2023-01-01T09:42:05.450Z,11.15
2023-01-01T09:45:16.993Z,9.02
2023-01-01T09:47:51.498Z,10.18
2023-01-01T09:50:22.745Z,9.93
2023-01-01T09:52:56.563Z,10.02
2023-01-01T09:55:38.337Z,10.73
2023-01-01T09:58:04.963Z,11.93
2023-01-01T10:00:34.256Z,12.60
2023-01-01T10:03:26.396Z,13.18
2023-01-01T10:06:22.590Z,12.60
2023-01-01T10:09:01.817Z,11.55
2023-01-01T10:11:43.785Z,11.23
2023-01-01T10:14:27.442Z,12.38
2023-01-01T10:16:56.610Z,14.00
2023-01-01T10:19:36.655Z,13.88
2023-01-01T10:22:34.948Z,10.65
2023-01-01T10:25:13.650Z,10.18
2023-01-01T10:27:57.138Z,13.38
2023-01-01T10:30:27.592Z,10.52
2023-01-01T10:32:55.886Z,8.77
2023-01-01T10:35:31.082Z,10.73
2023-01-01T10:38:02.274Z,10.20
2023-01-01T10:40:30.523Z,7.45
2023-01-01T10:42:59.164Z,7.25
2023-01-01T10:45:38.275Z,9.07
2023-01-01T10:48:19.931Z,7.65
2023-01-01T10:50:56.475Z,5.40
2023-01-01T10:53:43.111Z,4.78
2023-01-01T10:56:15.424Z,4.88
2023-01-01T10:58:56.081Z,5.43
2023-01-01T11:01:33.944Z,4.90
2023-01-01T11:04:01.933Z,4.53
2023-01-01T11:06:35.802Z,6.15
2023-01-01T11:09:27.246Z,5.50
2023-01-01T11:12:01.993Z,6.63
2023-01-01T11:14:40.893Z,7.55
2023-01-01T11:17:09.682Z,6.22
2023-01-01T11:19:38.042Z,7.85
2023-01-01T11:22:05.820Z,6.13
2023-01-01T11:24:34.350Z,5.38
2023-01-01T11:27:23.523Z,4.95
2023-01-01T11:29:54.694Z,5.93
2023-01-01T11:32:28.179Z,4.80
2023-01-01T11:35:03.570Z,4.32
2023-01-01T11:37:34.063Z,5.07
2023-01-01T11:40:01.707Z,6.57
2023-01-01T11:42:31.130Z,6.15
2023-01-01T11:45:37.809Z,4.78
2023-01-01T11:48:12.926Z,5.68
2023-01-01T11:50:41.662Z,4.47
2023-01-01T11:53:23.688Z,4.25
2023-01-01T11:56:06.222Z,8.20
2023-01-01T11:58:48.592Z,5.60
2023-01-01T12:01:49.346Z,5.90
2023-01-01T12:04:44.917Z,6.18
2023-01-01T12:07:16.797Z,4.20
2023-01-01T12:09:52.150Z,6.70
2023-01-01T12:12:25.052Z,7.97
2023-01-01T12:15:05.539Z,7.45
2023-01-01T12:17:39.736Z,6.20
2023-01-01T12:20:26.914Z,5.45
2023-01-01T12:22:57.834Z,5.90
2023-01-01T12:25:31.433Z,4.60
2023-01-01T12:28:33.931Z,5.82
2023-01-01T12:31:08.169Z,5.28
2023-01-01T12:34:01.178Z,4.47
2023-01-01T12:36:39.841Z,6.28
2023-01-01T12:39:25.101Z,6.53
2023-01-01T12:42:14.227Z,7.68
2023-01-01T12:45:11.990Z,6.30
2023-01-01T12:48:16.354Z,6.47
2023-01-01T12:51:13.807Z,6.55
2023-01-01T12:54:28.919Z,7.38
2023-01-01T12:57:14.162Z,5.40
2023-01-01T12:59:46.697Z,3.90
2023-01-01T13:02:23.882Z,6.43
2023-01-01T13:04:56.313Z,5.05
2023-01-01T13:07:42.939Z,7.90
2023-01-01T13:10:34.177Z,4.97
2023-01-01T13:13:01.607Z,8.15
2023-01-01T13:15:37.372Z,7.50
2023-01-01T13:18:07.480Z,4.95
2023-01-01T13:20:39.114Z,7.75
2023-01-01T13:23:05.808Z,8.95
2023-01-01T13:25:32.465Z,7.20
2023-01-01T13:28:00.285Z,5.32
2023-01-01T13:30:36.930Z,6.65
2023-01-01T13:33:36.763Z,7.30
2023-01-01T13:36:09.569Z,7.90
2023-01-01T13:38:52.544Z,6.35
2023-01-01T13:41:41.134Z,5.95
2023-01-01T13:44:07.720Z,5.93
2023-01-01T13:46:43.814Z,5.90
2023-01-01T13:49:22.735Z,6.38
2023-01-01T13:52:24.739Z,9.07
2023-01-01T13:55:22.127Z,6.60
2023-01-01T13:58:20.135Z,8.07
2023-01-01T14:01:18.618Z,7.38
2023-01-01T14:03:51.890Z,5.25
2023-01-01T14:06:32.468Z,6.93
2023-01-01T14:09:06.873Z,8.40
2023-01-01T14:11:33.579Z,8.05
2023-01-01T14:14:00.184Z,5.90
2023-01-01T14:16:28.468Z,7.88
2023-01-01T14:19:00.755Z,7.18
2023-01-01T14:21:31.925Z,7.37
2023-01-01T14:24:03.467Z,9.32
2023-01-01T14:26:32.061Z,4.80
2023-01-01T14:29:01.617Z,6.05
2023-01-01T14:31:31.962Z,4.65
2023-01-01T14:33:58.582Z,6.05
2023-01-01T14:36:27.938Z,5.43
2023-01-01T14:38:57.053Z,6.88
2023-01-01T14:41:37.540Z,10.13
2023-01-01T14:44:27.620Z,9.52
2023-01-01T14:46:54.797Z,6.70
2023-01-01T14:49:42.386Z,3.97
2023-01-01T14:52:16.935Z,7.60
2023-01-01T14:54:45.866Z,7.32
2023-01-01T14:57:30.567Z,8.25
2023-01-01T14:59:57.241Z,9.07
2023-01-01T15:02:26.354Z,11.05
2023-01-01T15:04:53.114Z,11.80
2023-01-01T15:07:25.622Z,9.30
2023-01-01T15:09:54.069Z,10.25
2023-01-01T15:12:21.625Z,9.20
2023-01-01T15:14:50.924Z,5.82
2023-01-01T15:17:20.006Z,9.65
2023-01-01T15:20:01.373Z,7.38
2023-01-01T15:22:38.932Z,5.53
2023-01-01T15:25:12.660Z,5.72
2023-01-01T15:27:39.308Z,6.78
2023-01-01T15:30:13.481Z,6.93
2023-01-01T15:32:40.778Z,6.65
2023-01-01T15:35:31.693Z,13.95
2023-01-01T15:38:18.936Z,12.02
2023-01-01T15:40:51.060Z,8.40
2023-01-01T15:43:25.086Z,7.22
2023-01-01T15:46:14.328Z,7.75
2023-01-01T15:48:50.044Z,9.38
2023-01-01T15:51:25.531Z,7.47
2023-01-01T15:54:01.111Z,9.38
2023-01-01T15:56:30.569Z,7.13
2023-01-01T15:59:27.491Z,7.50
2023-01-01T16:02:05.586Z,7.07
2023-01-01T16:04:32.651Z,5.07
2023-01-01T16:07:00.104Z,7.53
2023-01-01T16:09:26.886Z,6.30
2023-01-01T16:11:55.725Z,8.85
2023-01-01T16:14:23.341Z,6.88
2023-01-01T16:16:57.154Z,10.18
2023-01-01T16:19:24.545Z,9.27
2023-01-01T16:21:51.148Z,9.40
2023-01-01T16:24:19.481Z,10.43
2023-01-01T16:26:47.238Z,9.75
2023-01-01T16:29:14.193Z,9.52
2023-01-01T16:31:41.500Z,11.15
2023-01-01T16:34:10.991Z,9.73
2023-01-01T16:36:37.635Z,6.75
2023-01-01T16:39:04.253Z,8.82
2023-01-01T16:41:30.889Z,10.35
2023-01-01T16:43:57.905Z,7.80
2023-01-01T16:46:25.857Z,8.02
2023-01-01T16:48:52.477Z,11.38
2023-01-01T16:51:29.584Z,9.18
2023-01-01T16:53:57.401Z,6.90
2023-01-01T16:56:24.123Z,12.10
2023-01-01T16:58:54.226Z,12.05
2023-01-01T17:01:25.417Z,8.73
2023-01-01T17:03:52.456Z,9.45
2023-01-01T17:06:19.745Z,7.85
2023-01-01T17:08:46.481Z,8.70
2023-01-01T17:11:18.186Z,10.80
2023-01-01T17:13:46.890Z,8.13
2023-01-01T17:16:19.375Z,6.05
2023-01-01T17:21:40.173Z,6.40
2023-01-01T17:24:07.316Z,8.57
2023-01-01T17:26:33.958Z,12.15
2023-01-01T17:29:01.182Z,6.88
2023-01-01T17:31:28.981Z,11.25
2023-01-01T17:33:56.206Z,13.20
2023-01-01T17:36:23.115Z,9.23
2023-01-01T17:38:49.741Z,9.88
2023-01-01T17:41:17.235Z,9.10
2023-01-01T17:43:45.979Z,9.68
2023-01-01T17:46:23.991Z,8.93
2023-01-01T17:48:51.050Z,7.10
2023-01-01T17:51:18.711Z,11.55
2023-01-01T17:53:45.667Z,7.90
2023-01-01T17:56:14.745Z,10.10
2023-01-01T17:58:42.793Z,10.55
2023-01-01T18:01:21.628Z,9.10
2023-01-01T18:03:56.583Z,9.15
2023-01-01T18:06:23.808Z,11.25
2023-01-01T18:08:55.892Z,10.52
2023-01-01T18:11:23.466Z,7.47
2023-01-01T18:13:50.188Z,8.23
2023-01-01T18:16:17.079Z,6.88
2023-01-01T18:18:44.315Z,12.32
2023-01-01T18:21:19.499Z,9.57
2023-01-01T18:23:46.322Z,8.95
2023-01-01T18:26:13.075Z,10.45
2023-01-01T18:28:39.734Z,11.07
2023-01-01T18:31:14.056Z,9.77
2023-01-01T18:33:41.473Z,11.50
2023-01-01T18:36:09.614Z,10.70
2023-01-01T18:38:36.594Z,14.25
2023-01-01T18:41:14.932Z,7.45
2023-01-01T18:43:41.666Z,8.75
2023-01-01T18:46:09.810Z,13.40
2023-01-01T18:48:37.227Z,9.30
2023-01-01T18:51:14.737Z,11.82
2023-01-01T18:53:41.375Z,12.18
2023-01-01T18:56:14.158Z,10.73
2023-01-01T18:58:42.715Z,8.88
2023-01-01T19:01:21.829Z,8.40
2023-01-01T19:03:50.626Z,10.70
2023-01-01T19:06:22.807Z,10.65
2023-01-01T19:08:50.598Z,11.70
2023-01-01T19:11:21.965Z,10.73
2023-01-01T19:13:51.329Z,11.13
2023-01-01T19:16:29.659Z,10.00
2023-01-01T19:19:10.581Z,13.45
2023-01-01T19:21:39.528Z,12.63
2023-01-01T19:24:14.784Z,11.70
2023-01-01T19:26:41.391Z,11.23
2023-01-01T19:29:21.927Z,11.98
2023-01-01T19:31:53.800Z,10.93
2023-01-01T19:34:21.852Z,9.07
2023-01-01T19:36:48.699Z,11.70
2023-01-01T19:39:15.968Z,9.65
2023-01-01T19:41:43.131Z,12.90
2023-01-01T19:44:10.647Z,7.80
2023-01-01T19:46:37.427Z,8.48
2023-01-01T19:49:04.309Z,9.25
2023-01-01T19:51:30.966Z,9.02
2023-01-01T19:53:57.557Z,8.32
2023-01-01T19:56:24.318Z,7.70
2023-01-01T19:58:50.925Z,11.07
2023-01-01T20:01:17.802Z,8.95
2023-01-01T20:04:00.070Z,11.57
2023-01-01T20:06:27.188Z,10.73
2023-01-01T20:08:54.773Z,12.07
2023-01-01T20:11:21.449Z,10.68
2023-01-01T20:13:48.276Z,10.75
2023-01-01T20:16:14.944Z,8.13
2023-01-01T20:18:41.550Z,8.27
2023-01-01T20:21:27.248Z,9.50
2023-01-01T20:23:55.353Z,8.80
2023-01-01T20:26:23.766Z,6.95
2023-01-01T20:29:09.359Z,6.80
2023-01-01T20:31:36.405Z,9.27
2023-01-01T20:34:03.420Z,7.53
2023-01-01T20:36:48.660Z,7.82
2023-01-01T20:39:15.244Z,8.07
2023-01-01T20:41:41.997Z,8.40
2023-01-01T20:44:08.591Z,8.90
2023-01-01T20:46:36.113Z,7.20
2023-01-01T20:49:02.847Z,8.82
2023-01-01T20:51:29.515Z,7.03
2023-01-01T20:53:56.371Z,7.60
2023-01-01T20:56:23.175Z,6.97
2023-01-01T20:58:57.437Z,9.02
2023-01-01T21:01:26.248Z,10.90
2023-01-01T21:03:53.104Z,10.75
2023-01-01T21:06:24.536Z,8.48
2023-01-01T21:08:51.824Z,10.15
2023-01-01T21:11:18.586Z,7.07
2023-01-01T21:13:45.587Z,7.88
2023-01-01T21:16:22.454Z,7.00
2023-01-01T21:18:50.366Z,6.78
2023-01-01T21:21:23.499Z,10.55
2023-01-01T21:23:52.523Z,7.68
2023-01-01T21:26:34.872Z,7.85
2023-01-01T21:29:07.761Z,7.40
2023-01-01T21:31:38.055Z,6.28
2023-01-01T21:34:34.456Z,8.20
2023-01-01T21:37:42.789Z,6.95
2023-01-01T21:40:48.861Z,9.75
2023-01-01T21:43:33.978Z,7.80
2023-01-01T21:46:06.844Z,8.80
2023-01-01T21:49:02.867Z,6.32
2023-01-01T21:51:42.193Z,5.97
2023-01-01T21:54:14.354Z,6.97
2023-01-01T21:56:43.276Z,6.50
2023-01-01T21:59:28.209Z,6.72
2023-01-01T22:02:04.196Z,7.25
2023-01-01T22:04:36.747Z,5.43
2023-01-01T22:07:55.953Z,7.30
2023-01-01T22:10:10.080Z,6.35
2023-01-01T22:12:37.052Z,9.10
2023-01-01T22:15:25.102Z,6.18
2023-01-01T22:18:12.045Z,8.68
2023-01-01T22:20:40.590Z,4.93
2023-01-01T22:23:40.323Z,6.15
2023-01-01T22:26:24.431Z,7.13
2023-01-01T22:29:04.151Z,6.72
2023-01-01T22:31:33.472Z,6.30
2023-01-01T22:34:02.120Z,7.45
2023-01-01T22:36:30.534Z,7.13
2023-01-01T22:39:13.473Z,6.63
2023-01-01T22:41:42.248Z,5.80
2023-01-01T22:44:10.687Z,10.20
2023-01-01T22:46:39.961Z,6.70
2023-01-01T22:49:32.678Z,6.40
2023-01-01T22:51:59.800Z,8.52
2023-01-01T22:54:26.376Z,9.15
2023-01-01T22:56:53.003Z,9.63
2023-01-01T22:59:19.615Z,10.10
2023-01-01T23:01:46.487Z,12.13
2023-01-01T23:04:13.197Z,7.85
2023-01-01T23:06:39.823Z,11.20
2023-01-01T23:09:08.303Z,16.77
2023-01-01T23:11:34.991Z,19.15
2023-01-01T23:14:20.382Z,24.88
2023-01-01T23:16:46.987Z,29.00
2023-01-01T23:19:13.647Z,23.88
2023-01-01T23:21:42.304Z,20.38
2023-01-01T23:24:13.619Z,19.10
2023-01-01T23:26:41.085Z,16.60
2023-01-01T23:29:09.965Z,15.45
2023-01-01T23:31:39.120Z,15.93
2023-01-01T23:34:06.249Z,13.38
2023-01-01T23:36:33.772Z,13.20
2023-01-01T23:39:00.618Z,12.48
2023-01-01T23:41:27.290Z,10.77
2023-01-01T23:43:53.960Z,9.15
2023-01-01T23:46:20.694Z,10.18
2023-01-01T23:48:48.540Z,7.55
2023-01-01T23:51:16.429Z,6.63
2023-01-01T23:53:43.038Z,8.70
2023-01-01T23:56:09.685Z,6.38
2023-01-01T23:58:36.363Z,9.30
